Aérodrome :
LOGIN :

S'inscrire | Disclaimer

   EN    FR    IT 

 










Légende :    VFR   VFR Marginal   IFR   IFR Intensif   IFR Très Intensif
Visi : 
Plafond : 
>= 8 km
>= 3000ft
5 à 8 km
1000 à 3000 ft
1500m à 5 km
500 à 1000 ft
800 à 1500m
200 à 500 ft
< 800m
< 200 ft
Symboles :   Orages  Brouillard  Fortes neiges  Fortes précipitations  Vent > 20 kt
SIGMETs :   Divers  Orages  Givrage  Turbulence  Onde Orograph.  Cendres Volcan.







- Altitude de l'aérodrome : 1521 ft
- Code IATA : NCY
- Voir les cartes d'approche


LFLP - Annecy

DERNIER METAR :
  • 281700Z AUTO 28007KT CAVOK 18/04 Q1024 NOSIG

METARs EXPIRÉS :
  • 281630Z AUTO 27008KT 240V300 9999 SCT076 19/04 Q1024 NOSIG
  • 281600Z AUTO VRB02KT 9999 BKN068 20/03 Q1024 NOSIG
  • 281530Z AUTO 25004KT 170V320 9999 FEW076 20/05 Q1024 NOSIG
  • 281500Z AUTO VRB02KT CAVOK 20/04 Q1024 NOSIG
  • 281430Z AUTO 27004KT 230V290 CAVOK 19/05 Q1024 NOSIG

TAF TAF LFLP
Valide du 28 à 15h jusqu'au 29 à 15h UTC


281400Z 2815/2915 VRB03KT CAVOK
TEMPO 2815/2819 SCT060
BECMG 2910/2912 36005KT
Pas de NOTAMs connus pour ce terrain.



MET'MAP, la Météo Aéronautique d'un coup d'oeil ! - Copyright ORBIFLY Décembre 2007 - Disclaimer

ORBIFLY MET'MAP TEAM :

Programmation & Développement : Alexandra Zaïnal
Conception & Développement : Baudouin d'Aumeries
Co-Programmation & Développement : Marc-Olivier Méhu
Soutien technique & logistique : Manuel Goepfert

Contact : metmap@orbifly.com




SOURCES & CREDITS :

   NOAA